Bella Fino — 27132QC — position and weather

sailwx.info

Track history (hours):
 
Tides and Currents Weather Stations Pressure Air Temp Water Temp Dewpoint Dewpoint Depression Visibility Wind Speed Wind Dir Waves Ship Positions

Bella Fino

Last reported at 2017-Sep-09 06:37 UTC. Time now 2017-Sep-24 08:33 UTC.
Position S 27°58' E 153°25'.
Warning: this ship's position is 15 days out of date.

Length 20 m.

Type: Pleasure craft. MMSI: 503519500.

Date/timePositionNaut miles runAvg speedWind from/ knotsBaromVisibWave heightAir tempDewpointWater temp
2017-Sep-09 06:37S 27°58' E 153°25'0 0.0
2017-Sep-09 06:19S 27°58' E 153°25'0 0.0
2017-Sep-09 05:56S 27°58' E 153°25'3 5.9
2017-Sep-09 05:30S 27°55' E 153°25'3 6.6
2017-Sep-09 05:00S 27°52' E 153°24'2 4.3
2017-Sep-09 04:29S 27°51' E 153°22'0 0.0
2017-Sep-09 03:59S 27°51' E 153°22'0 0.0
2017-Sep-09 03:29S 27°51' E 153°22'0 0.0
2017-Sep-09 02:56S 27°51' E 153°22'1 1.1
2017-Sep-09 02:29S 27°51' E 153°22'2 5.1
2017-Sep-09 02:00S 27°52' E 153°25'4 8.4
2017-Sep-09 01:30S 27°57' E 153°25'2 2.8
2017-Sep-09 00:57S 27°58' E 153°25'0 0.0
2017-Sep-09 00:27S 27°58' E 153°25'  
Track history (hours):
 
Tides and Currents Weather Stations Pressure Air Temp Water Temp Dewpoint Dewpoint Depression Visibility Wind Speed Wind Dir Waves Ship Positions

Bella Fino

Last reported at 2017-Sep-09 06:37 UTC. Time now 2017-Sep-24 08:33 UTC.
Position S 27°58' E 153°25'.
Warning: this ship's position is 15 days out of date.

Length 20 m.

Type: Pleasure craft. MMSI: 503519500.

Date/timePositionNaut miles runAvg speedWind from/ knotsBaromVisibWave heightAir tempDewpointWater temp
2017-Sep-09 06:37S 27°58' E 153°25'0 0.0
2017-Sep-09 06:19S 27°58' E 153°25'0 0.0
2017-Sep-09 05:56S 27°58' E 153°25'3 5.9
2017-Sep-09 05:30S 27°55' E 153°25'3 6.6
2017-Sep-09 05:00S 27°52' E 153°24'2 4.3
2017-Sep-09 04:29S 27°51' E 153°22'0 0.0
2017-Sep-09 03:59S 27°51' E 153°22'0 0.0
2017-Sep-09 03:29S 27°51' E 153°22'0 0.0
2017-Sep-09 02:56S 27°51' E 153°22'1 1.1
2017-Sep-09 02:29S 27°51' E 153°22'2 5.1
2017-Sep-09 02:00S 27°52' E 153°25'4 8.4
2017-Sep-09 01:30S 27°57' E 153°25'2 2.8
2017-Sep-09 00:57S 27°58' E 153°25'0 0.0
2017-Sep-09 00:27S 27°58' E 153°25'  

Dump ship's entire track history